createdAt,value
2023-05-02T00:01:45.864Z,99954.09
2023-05-02T00:04:12.640Z,99958.38
2023-05-02T00:06:39.874Z,99950.34
2023-05-02T00:09:06.503Z,99956.13
2023-05-02T00:11:39.234Z,99953.72
2023-05-02T00:14:18.371Z,99946.06
2023-05-02T00:17:04.653Z,99952.91
2023-05-02T00:19:31.295Z,99947.16
2023-05-02T00:21:58.919Z,99948.66
2023-05-02T00:24:26.892Z,99946.25
2023-05-02T00:26:53.524Z,99960.94
2023-05-02T00:29:20.071Z,99961.06
2023-05-02T00:31:46.653Z,99960.91
2023-05-02T00:34:13.211Z,99956.84
2023-05-02T00:36:39.773Z,99962.87
2023-05-02T00:39:06.403Z,99952.56
2023-05-02T00:41:34.194Z,99949.97
2023-05-02T00:44:12.845Z,99955.94
2023-05-02T00:47:01.143Z,99952.59
2023-05-02T00:49:28.588Z,99951.59
2023-05-02T00:51:55.532Z,99956.03
2023-05-02T00:54:22.219Z,99953.28
2023-05-02T00:56:49.407Z,99949.06
2023-05-02T00:59:16.692Z,99951.00
2023-05-02T01:02:05.347Z,99959.28
2023-05-02T01:05:01.101Z,99956.53
2023-05-02T01:07:46.475Z,99962.22
2023-05-02T01:10:48.823Z,99953.13
2023-05-02T01:13:32.749Z,99956.22
2023-05-02T01:16:13.372Z,99960.78
2023-05-02T01:18:43.594Z,99959.62
2023-05-02T01:21:12.198Z,99953.28
2023-05-02T01:24:00.715Z,99950.19
2023-05-02T01:26:37.285Z,99954.25
2023-05-02T01:29:07.146Z,99955.06
2023-05-02T01:31:41.874Z,99950.19
2023-05-02T01:34:10.778Z,99947.16
2023-05-02T01:36:43.156Z,99950.81
2023-05-02T01:39:13.461Z,99953.84
2023-05-02T01:41:53.456Z,99938.09
2023-05-02T01:44:24.330Z,99939.56
2023-05-02T01:46:57.807Z,99931.03
2023-05-02T01:49:26.893Z,99933.53
2023-05-02T01:51:53.534Z,99940.72
2023-05-02T01:54:24.731Z,99939.22
2023-05-02T01:56:52.405Z,99935.88
2023-05-02T01:59:22.486Z,99933.56
2023-05-02T02:01:51.709Z,99944.59
2023-05-02T02:04:20.011Z,99934.13
2023-05-02T02:06:52.091Z,99941.41
2023-05-02T02:09:18.957Z,99935.91
2023-05-02T02:12:06.329Z,99926.44
2023-05-02T02:15:13.082Z,99938.28
2023-05-02T02:20:17.002Z,99920.59
2023-05-02T02:22:44.506Z,99916.13
2023-05-02T02:25:14.343Z,99920.75
2023-05-02T02:27:41.714Z,99922.75
2023-05-02T02:30:11.959Z,99923.06
2023-05-02T02:32:38.611Z,99925.63
2023-05-02T02:35:06.056Z,99913.31
2023-05-02T02:37:35.319Z,99920.16
2023-05-02T02:40:13.028Z,99916.87
2023-05-02T02:43:08.958Z,99914.78
2023-05-02T02:46:51.254Z,99914.00
2023-05-02T02:50:15.676Z,99923.16
2023-05-02T02:52:55.203Z,99925.91
2023-05-02T02:55:35.435Z,99919.38
2023-05-02T02:58:20.683Z,99928.94
2023-05-02T03:00:49.748Z,99929.62
2023-05-02T03:03:18.062Z,99912.84
2023-05-02T03:05:45.577Z,99925.97
2023-05-02T03:08:13.669Z,99922.28
2023-05-02T03:10:40.309Z,99922.84
2023-05-02T03:13:06.821Z,99929.25
2023-05-02T03:16:24.392Z,99930.22
2023-05-02T03:18:51.176Z,99920.84
2023-05-02T03:21:17.710Z,99933.47
2023-05-02T03:23:44.294Z,99932.00
2023-05-02T03:26:11.121Z,99933.75
2023-05-02T03:28:37.658Z,99933.81
2023-05-02T03:31:04.384Z,99926.50
2023-05-02T03:36:33.527Z,99926.50
2023-05-02T03:39:00.118Z,99936.31
2023-05-02T03:41:26.694Z,99936.31
2023-05-02T03:43:53.246Z,99941.16
2023-05-02T03:46:19.852Z,99940.59
2023-05-02T03:49:17.026Z,99940.78
2023-05-02T03:52:17.887Z,99939.19
2023-05-02T03:54:50.961Z,99952.50
2023-05-02T03:57:18.104Z,99947.22
2023-05-02T03:59:45.830Z,99952.47
2023-05-02T04:02:12.574Z,99959.41
2023-05-02T04:04:40.772Z,99956.88
2023-05-02T04:07:08.042Z,99956.41
2023-05-02T04:12:09.943Z,99954.50
2023-05-02T04:14:36.470Z,99958.59
2023-05-02T04:17:03.182Z,99949.97
2023-05-02T04:19:29.777Z,99962.28
2023-05-02T04:21:56.296Z,99968.22
2023-05-02T04:24:26.110Z,99954.50
2023-05-02T04:27:15.454Z,99969.19
2023-05-02T04:29:51.152Z,99973.59
2023-05-02T04:32:17.713Z,99963.41
2023-05-02T04:34:44.332Z,99970.69
2023-05-02T04:37:11.179Z,99968.59
2023-05-02T04:39:40.757Z,99969.50
2023-05-02T04:42:07.319Z,99972.47
2023-05-02T04:44:34.267Z,99972.59
2023-05-02T04:47:04.616Z,99960.19
2023-05-02T04:49:32.206Z,99967.12
2023-05-02T04:51:59.142Z,99975.50
2023-05-02T04:54:25.695Z,99977.47
2023-05-02T04:56:52.269Z,99985.91
2023-05-02T04:59:18.815Z,99980.38
2023-05-02T05:01:45.627Z,99978.19
2023-05-02T05:04:12.363Z,99983.28
2023-05-02T05:06:39.051Z,99981.03
2023-05-02T05:09:06.075Z,99988.69
2023-05-02T05:11:32.684Z,99986.37
2023-05-02T05:13:59.300Z,99991.22
2023-05-02T05:16:25.962Z,99992.56
2023-05-02T05:18:53.921Z,99982.81
2023-05-02T05:21:20.860Z,99994.03
2023-05-02T05:23:47.727Z,100001.81
2023-05-02T05:26:15.784Z,99996.62
2023-05-02T05:28:43.573Z,99998.09
2023-05-02T05:31:13.036Z,100003.44
2023-05-02T05:33:40.713Z,100008.81
2023-05-02T05:36:08.718Z,100011.22
2023-05-02T05:38:35.801Z,100003.75
2023-05-02T05:41:02.808Z,100013.84
2023-05-02T05:43:29.941Z,100022.09
2023-05-02T05:45:56.810Z,100024.06
2023-05-02T05:48:24.430Z,100023.53
2023-05-02T05:50:52.380Z,100024.16
2023-05-02T05:53:19.905Z,100019.69
2023-05-02T05:55:46.469Z,100023.84
2023-05-02T05:58:13.456Z,100026.78
2023-05-02T06:00:40.290Z,100027.19
2023-05-02T06:03:09.597Z,100032.09
2023-05-02T06:05:36.979Z,100036.16
2023-05-02T06:08:03.718Z,100030.75
2023-05-02T06:10:31.618Z,100034.56
2023-05-02T06:12:58.541Z,100030.59
2023-05-02T06:15:25.119Z,100032.81
2023-05-02T06:17:52.340Z,100018.59
2023-05-02T06:20:19.125Z,100033.13
2023-05-02T06:22:46.190Z,100032.09
2023-05-02T06:25:12.731Z,100027.84
2023-05-02T06:27:39.258Z,100028.62
2023-05-02T06:30:06.691Z,100028.62
2023-05-02T06:32:33.323Z,100026.34
2023-05-02T06:34:59.999Z,100041.13
2023-05-02T06:37:26.594Z,100035.47
2023-05-02T06:39:53.159Z,100028.66
2023-05-02T06:42:19.751Z,100033.22
2023-05-02T06:44:46.321Z,100029.78
2023-05-02T06:47:13.044Z,100035.75
2023-05-02T06:49:39.728Z,100038.09
2023-05-02T06:52:06.341Z,100029.69
2023-05-02T06:55:42.660Z,100029.41
2023-05-02T06:58:27.943Z,100031.25
2023-05-02T07:00:54.528Z,100033.13
2023-05-02T07:03:21.183Z,100031.94
2023-05-02T07:05:47.745Z,100030.47
2023-05-02T07:08:14.338Z,100031.91
2023-05-02T07:10:53.188Z,100035.81
2023-05-02T07:13:19.834Z,100027.22
2023-05-02T07:15:46.420Z,100034.59
2023-05-02T07:18:13.034Z,100036.69
2023-05-02T07:20:41.419Z,100033.56
2023-05-02T07:23:09.343Z,100038.41
2023-05-02T07:25:42.119Z,100036.31
2023-05-02T07:28:08.712Z,100037.78
2023-05-02T07:30:35.321Z,100038.28
2023-05-02T07:33:01.894Z,100042.66
2023-05-02T07:35:48.618Z,100046.72
2023-05-02T07:38:37.032Z,100047.75
2023-05-02T07:41:03.770Z,100052.50
2023-05-02T07:43:30.359Z,100058.75
2023-05-02T07:45:57.123Z,100052.50
2023-05-02T07:48:25.005Z,100044.66
2023-05-02T07:50:53.748Z,100047.25
2023-05-02T07:53:20.277Z,100053.53
2023-05-02T07:55:47.066Z,100043.66
2023-05-02T07:58:13.614Z,100046.69
2023-05-02T08:00:40.152Z,100042.31
2023-05-02T08:03:07.704Z,100052.59
2023-05-02T08:05:34.393Z,100037.22
2023-05-02T08:08:02.050Z,100052.06
2023-05-02T08:10:28.642Z,100049.31
2023-05-02T08:12:55.519Z,100045.47
2023-05-02T08:15:22.047Z,100044.47
2023-05-02T08:17:48.641Z,100048.78
2023-05-02T08:20:15.739Z,100052.66
2023-05-02T08:22:42.341Z,100047.19
2023-05-02T08:25:09.252Z,100047.78
2023-05-02T08:27:35.847Z,100038.31
2023-05-02T08:30:02.830Z,100043.31
2023-05-02T08:32:30.184Z,100047.53
2023-05-02T08:34:57.192Z,100040.59
2023-05-02T08:37:23.786Z,100041.16
2023-05-02T08:39:50.373Z,100039.38
2023-05-02T08:42:16.930Z,100022.50
2023-05-02T08:44:43.542Z,100040.06
2023-05-02T08:47:13.729Z,100035.59
2023-05-02T08:49:41.306Z,100037.31
2023-05-02T08:52:09.370Z,100043.22
2023-05-02T08:54:51.514Z,100039.88
2023-05-02T08:57:18.106Z,100034.88
2023-05-02T08:59:44.680Z,100032.00
2023-05-02T09:02:39.627Z,100031.41
2023-05-02T09:05:57.086Z,100026.78
2023-05-02T09:08:43.611Z,100020.34
2023-05-02T09:11:11.524Z,100021.13
2023-05-02T09:13:43.037Z,100030.44
2023-05-02T09:16:11.773Z,100028.59
2023-05-02T09:18:49.909Z,100025.62
2023-05-02T09:21:21.851Z,100020.03
2023-05-02T09:24:01.755Z,100027.03
2023-05-02T09:26:32.778Z,100024.50
2023-05-02T09:29:02.282Z,100023.41
2023-05-02T09:31:54.379Z,100028.50
2023-05-02T09:34:20.622Z,100028.66
2023-05-02T09:36:52.020Z,100016.28
2023-05-02T09:41:54.695Z,100013.53
2023-05-02T09:44:27.119Z,100019.50
2023-05-02T09:46:55.633Z,100025.44
2023-05-02T09:49:42.588Z,100019.13
2023-05-02T09:52:17.828Z,100017.84
2023-05-02T09:55:25.359Z,100019.72
2023-05-02T09:58:04.542Z,100020.78
2023-05-02T10:00:40.556Z,100015.50
2023-05-02T10:03:08.604Z,100012.69
2023-05-02T10:05:39.842Z,100019.06
2023-05-02T10:08:32.720Z,100015.72
2023-05-02T10:11:00.842Z,100024.88
2023-05-02T10:13:32.198Z,100030.28
2023-05-02T10:16:01.680Z,100031.59
2023-05-02T10:18:32.960Z,100013.87
2023-05-02T10:21:06.285Z,100014.56
2023-05-02T10:23:53.420Z,100003.25
2023-05-02T10:26:23.563Z,100005.06
2023-05-02T10:28:51.252Z,99999.31
2023-05-02T10:31:18.597Z,99999.50
2023-05-02T10:34:13.581Z,100005.88
2023-05-02T10:37:27.222Z,100008.91
2023-05-02T10:40:00.937Z,99996.72
2023-05-02T10:42:29.791Z,100010.88
2023-05-02T10:44:56.830Z,100008.28
2023-05-02T10:47:27.399Z,99991.50
2023-05-02T10:49:59.837Z,99992.19
2023-05-02T10:52:32.886Z,99995.25
2023-05-02T11:05:22.898Z,99989.94
2023-05-02T11:07:49.776Z,99984.72
2023-05-02T11:10:46.340Z,99977.94
2023-05-02T11:13:51.464Z,99976.44
2023-05-02T11:16:18.105Z,99974.47
2023-05-02T11:19:01.026Z,99968.44
2023-05-02T11:21:29.521Z,99963.50
2023-05-02T11:24:33.758Z,99969.19
2023-05-02T11:27:38.545Z,99965.72
2023-05-02T11:30:09.583Z,99966.72
2023-05-02T11:32:45.475Z,99952.75
2023-05-02T11:35:20.729Z,99960.41
2023-05-02T11:37:58.079Z,99960.41
2023-05-02T11:40:25.721Z,99956.31
2023-05-02T11:45:37.612Z,99949.84
2023-05-02T11:48:07.806Z,99964.50
2023-05-02T11:50:46.654Z,99954.47
2023-05-02T11:53:24.981Z,99956.41
2023-05-02T11:55:54.417Z,99950.09
2023-05-02T12:04:30.346Z,99953.69
2023-05-02T12:06:57.988Z,99949.31
2023-05-02T12:09:27.523Z,99940.66
2023-05-02T12:11:54.845Z,99940.19
2023-05-02T12:14:29.722Z,99935.06
2023-05-02T12:19:44.884Z,99935.00
2023-05-02T12:22:13.385Z,99946.28
2023-05-02T12:24:41.252Z,99935.00
2023-05-02T12:27:15.326Z,99940.91
2023-05-02T12:29:46.042Z,99938.97
2023-05-02T12:32:28.077Z,99935.47
2023-05-02T12:35:47.506Z,99936.12
2023-05-02T12:38:23.742Z,99939.37
2023-05-02T12:40:57.449Z,99931.63
2023-05-02T12:43:24.132Z,99931.16
2023-05-02T12:45:53.861Z,99933.47
2023-05-02T12:48:27.993Z,99932.16
2023-05-02T12:50:55.477Z,99934.19
2023-05-02T12:53:45.795Z,99933.19
2023-05-02T12:56:13.426Z,99932.69
2023-05-02T12:58:44.100Z,99933.22
2023-05-02T13:01:11.216Z,99926.75
2023-05-02T13:03:38.695Z,99930.97
2023-05-02T13:06:05.817Z,99925.72
2023-05-02T13:08:34.449Z,99921.69
2023-05-02T13:11:04.867Z,99922.59
2023-05-02T13:13:32.597Z,99923.94
2023-05-02T13:15:59.116Z,99915.06
2023-05-02T13:18:25.909Z,99906.66
2023-05-02T13:20:52.535Z,99912.31
2023-05-02T13:23:19.192Z,99911.53
2023-05-02T13:25:45.765Z,99911.53
2023-05-02T13:28:12.325Z,99911.28
2023-05-02T13:30:38.978Z,99912.28
2023-05-02T13:33:05.710Z,99910.66
2023-05-02T13:35:33.501Z,99909.25
2023-05-02T13:38:01.806Z,99911.34
2023-05-02T13:40:28.542Z,99903.41
2023-05-02T13:42:55.205Z,99903.66
2023-05-02T13:45:21.860Z,99912.41
2023-05-02T13:47:48.471Z,99906.25
2023-05-02T13:50:15.144Z,99910.06
2023-05-02T13:52:41.804Z,99908.16
2023-05-02T13:55:21.672Z,99913.88
2023-05-02T14:00:43.053Z,99911.28
2023-05-02T14:03:13.846Z,99904.78
2023-05-02T14:05:54.467Z,99907.19
2023-05-02T14:08:23.492Z,99907.38
2023-05-02T14:10:56.258Z,99906.22
2023-05-02T14:13:26.372Z,99898.69
2023-05-02T14:16:01.837Z,99900.56
2023-05-02T14:18:29.494Z,99898.81
2023-05-02T14:21:04.893Z,99898.16
2023-05-02T14:23:36.957Z,99905.94
2023-05-02T14:26:13.421Z,99895.78
2023-05-02T14:28:50.658Z,99905.25
2023-05-02T14:31:21.002Z,99899.78
2023-05-02T14:33:50.235Z,99901.06
2023-05-02T14:36:18.964Z,99904.28
2023-05-02T14:38:50.913Z,99907.31
2023-05-02T14:41:28.371Z,99897.22
2023-05-02T14:43:58.411Z,99909.03
2023-05-02T14:46:37.123Z,99907.41
2023-05-02T14:49:11.531Z,99908.50
2023-05-02T14:51:39.600Z,99906.97
2023-05-02T14:54:07.174Z,99922.66
2023-05-02T14:56:33.936Z,99914.38
2023-05-02T14:59:00.792Z,99915.13
2023-05-02T15:01:27.510Z,99909.25
2023-05-02T15:04:05.057Z,99910.84
2023-05-02T15:06:33.046Z,99908.22
2023-05-02T15:08:59.923Z,99912.81
2023-05-02T15:11:26.769Z,99909.97
2023-05-02T15:13:53.348Z,99913.44
2023-05-02T15:16:20.136Z,99907.94
2023-05-02T15:18:46.886Z,99912.34
2023-05-02T15:21:13.503Z,99908.78
2023-05-02T15:23:40.292Z,99905.44
2023-05-02T15:26:06.900Z,99914.06
2023-05-02T15:28:33.555Z,99904.94
2023-05-02T15:31:00.167Z,99902.59
2023-05-02T15:33:26.782Z,99904.41
2023-05-02T15:35:55.545Z,99900.56
2023-05-02T15:38:22.572Z,99904.34
2023-05-02T15:40:57.172Z,99898.03
2023-05-02T15:43:24.862Z,99900.47
2023-05-02T15:45:55.517Z,99895.03
2023-05-02T15:48:23.447Z,99894.97
2023-05-02T15:50:50.830Z,99898.94
2023-05-02T15:53:18.112Z,99886.94
2023-05-02T15:55:45.969Z,99899.09
2023-05-02T15:58:13.612Z,99899.88
2023-05-02T16:00:40.409Z,99896.22
2023-05-02T16:03:07.110Z,99901.06
2023-05-02T16:05:34.450Z,99905.44
2023-05-02T16:08:01.589Z,99906.38
2023-05-02T16:10:28.761Z,99902.44
2023-05-02T16:12:55.482Z,99905.97
2023-05-02T16:15:22.813Z,99910.75
2023-05-02T16:17:50.551Z,99908.75
2023-05-02T16:20:18.112Z,99902.91
2023-05-02T16:22:48.560Z,99906.91
2023-05-02T16:25:16.405Z,99904.56
2023-05-02T16:27:43.723Z,99911.63
2023-05-02T16:30:10.940Z,99906.03
2023-05-02T16:32:37.855Z,99900.94
2023-05-02T16:35:07.401Z,99902.09
2023-05-02T16:37:35.330Z,99908.59
2023-05-02T16:40:04.332Z,99911.28
2023-05-02T16:42:31.399Z,99914.12
2023-05-02T16:44:58.024Z,99913.91
2023-05-02T16:47:24.779Z,99907.75
2023-05-02T16:49:59.036Z,99920.00
2023-05-02T16:52:26.619Z,99932.16
2023-05-02T16:54:54.089Z,99939.78
2023-05-02T16:57:21.574Z,99946.47
2023-05-02T16:59:50.247Z,99945.00
2023-05-02T17:02:18.933Z,99943.78
2023-05-02T17:04:45.731Z,99933.37
2023-05-02T17:07:12.670Z,99941.34
2023-05-02T17:09:41.129Z,99945.69
2023-05-02T17:12:11.012Z,99937.47
2023-05-02T17:14:42.510Z,99942.09
2023-05-02T17:17:09.996Z,99939.22
2023-05-02T17:19:37.007Z,99943.06
2023-05-02T17:22:05.247Z,99941.28
2023-05-02T17:24:32.458Z,99948.41
2023-05-02T17:26:59.431Z,99945.69
2023-05-02T17:29:26.467Z,99951.38
2023-05-02T17:31:53.061Z,99956.78
2023-05-02T17:34:25.620Z,99959.50
2023-05-02T17:36:52.264Z,99956.00
2023-05-02T17:39:18.899Z,99953.72
2023-05-02T17:41:45.459Z,99959.16
2023-05-02T17:44:12.105Z,99953.75
2023-05-02T17:46:38.899Z,99950.28
2023-05-02T17:49:06.607Z,99967.19
2023-05-02T17:51:33.848Z,99959.34
2023-05-02T17:54:00.988Z,99962.28
2023-05-02T17:56:28.610Z,99967.19
2023-05-02T17:58:55.640Z,99967.19
2023-05-02T18:01:22.523Z,99972.53
2023-05-02T18:03:50.021Z,99969.25
2023-05-02T18:06:17.785Z,99972.81
2023-05-02T18:08:45.186Z,99975.12
2023-05-02T18:11:18.630Z,99978.00
2023-05-02T18:13:45.877Z,99979.44
2023-05-02T18:16:14.048Z,99979.66
2023-05-02T18:18:41.207Z,99986.59
2023-05-02T18:21:09.440Z,99989.84
2023-05-02T18:23:36.023Z,99989.50
2023-05-02T18:26:02.787Z,99988.09
2023-05-02T18:28:29.522Z,99990.00
2023-05-02T18:30:56.076Z,99999.59
2023-05-02T18:33:22.622Z,100004.72
2023-05-02T18:35:51.481Z,100000.25
2023-05-02T18:38:18.390Z,100010.19
2023-05-02T18:40:45.696Z,100007.84
2023-05-02T18:43:12.382Z,100018.19
2023-05-02T18:45:39.007Z,100014.22
2023-05-02T18:48:05.960Z,100021.75
2023-05-02T18:50:32.712Z,100017.44
2023-05-02T18:52:59.306Z,100019.34
2023-05-02T18:55:25.920Z,100023.72
2023-05-02T18:57:52.533Z,100031.31
2023-05-02T19:00:20.552Z,100054.81
2023-05-02T19:02:47.839Z,100047.25
2023-05-02T19:05:15.111Z,100056.34
2023-05-02T19:07:42.331Z,100063.28
2023-05-02T19:10:10.966Z,100069.81
2023-05-02T19:12:37.696Z,100079.25
2023-05-02T19:15:05.103Z,100078.75
2023-05-02T19:17:31.838Z,100086.19
2023-05-02T19:19:58.610Z,100085.66
2023-05-02T19:22:27.697Z,100088.50
2023-05-02T19:24:57.522Z,100090.31
2023-05-02T19:27:24.544Z,100084.22
2023-05-02T19:29:54.267Z,100070.03
2023-05-02T19:32:25.425Z,100067.75
2023-05-02T19:34:52.092Z,100063.03
2023-05-02T19:37:18.692Z,100064.44
2023-05-02T19:39:45.247Z,100065.56
2023-05-02T19:42:11.774Z,100061.41
2023-05-02T19:44:38.376Z,100065.94
2023-05-02T19:47:04.946Z,100055.44
2023-05-02T19:49:31.661Z,100054.75
2023-05-02T19:51:59.244Z,100059.47
2023-05-02T19:54:25.997Z,100059.47
2023-05-02T19:56:52.541Z,100058.34
2023-05-02T19:59:19.184Z,100053.28
2023-05-02T20:01:46.760Z,100061.09
2023-05-02T20:04:13.671Z,100068.69
2023-05-02T20:06:40.304Z,100067.72
2023-05-02T20:09:07.062Z,100071.09
2023-05-02T20:11:33.584Z,100072.91
2023-05-02T20:14:00.426Z,100078.84
2023-05-02T20:16:27.368Z,100078.59
2023-05-02T20:18:54.213Z,100087.22
2023-05-02T20:21:20.807Z,100086.38
2023-05-02T20:26:22.689Z,100104.53
2023-05-02T20:28:49.332Z,100109.13
2023-05-02T20:31:15.960Z,100122.56
2023-05-02T20:33:45.782Z,100128.59
2023-05-02T20:36:14.254Z,100131.75
2023-05-02T20:39:33.480Z,100120.69
2023-05-02T20:42:34.494Z,100120.06
2023-05-02T20:45:02.718Z,100122.34
2023-05-02T20:47:30.185Z,100122.03
2023-05-02T20:49:57.166Z,100122.03
2023-05-02T20:52:23.956Z,100110.28
2023-05-02T20:54:53.938Z,100106.88
2023-05-02T20:57:20.676Z,100095.84
2023-05-02T20:59:47.309Z,100095.97
2023-05-02T21:02:14.182Z,100097.28
2023-05-02T21:04:42.225Z,100102.97
2023-05-02T21:07:08.828Z,100109.31
2023-05-02T21:09:35.452Z,100109.78
2023-05-02T21:14:37.272Z,100122.78
2023-05-02T21:17:03.870Z,100128.13
2023-05-02T21:19:37.451Z,100121.97
2023-05-02T21:26:26.769Z,100116.62
2023-05-02T21:43:12.661Z,100130.69
2023-05-02T21:45:46.827Z,100139.69
2023-05-02T21:48:14.561Z,100142.78
2023-05-02T21:50:42.524Z,100145.81
2023-05-02T21:53:09.826Z,100148.09
2023-05-02T21:55:37.662Z,100146.53
2023-05-02T21:58:22.580Z,100153.00
2023-05-02T22:01:09.110Z,100149.25
2023-05-02T22:03:36.625Z,100159.66
2023-05-02T22:06:06.955Z,100163.41
2023-05-02T22:08:33.851Z,100170.66
2023-05-02T22:11:00.447Z,100171.50
2023-05-02T22:13:27.119Z,100167.16
2023-05-02T22:18:29.245Z,100176.97
2023-05-02T22:20:58.530Z,100174.69
2023-05-02T22:23:25.114Z,100181.88
2023-05-02T22:25:51.730Z,100189.19
2023-05-02T22:28:18.368Z,100199.78
2023-05-02T22:30:44.986Z,100194.09
2023-05-02T22:33:27.297Z,100205.31
2023-05-02T22:36:13.929Z,100202.72
2023-05-02T22:38:41.697Z,100198.34
2023-05-02T22:46:18.937Z,100191.50
2023-05-02T23:27:50.883Z,100191.03
2023-05-02T23:30:17.471Z,100184.25
2023-05-02T23:32:45.103Z,100180.00
2023-05-02T23:35:12.387Z,100173.84
2023-05-02T23:37:41.217Z,100178.22
2023-05-02T23:40:13.925Z,100179.37
2023-05-02T23:42:40.959Z,100176.91
2023-05-02T23:45:08.721Z,100175.16
2023-05-02T23:47:36.151Z,100176.22
2023-05-02T23:50:22.187Z,100174.44
2023-05-02T23:53:03.471Z,100171.72
2023-05-02T23:55:30.341Z,100169.59
2023-05-02T23:57:56.912Z,100161.81
